createdAt,value
2018-02-19T00:00:35.817Z,73.89
2018-02-19T00:03:10.656Z,73.75
2018-02-19T00:05:45.879Z,73.66
2018-02-19T00:08:20.887Z,73.61
2018-02-19T00:10:56.043Z,73.53
2018-02-19T00:13:30.819Z,73.51
2018-02-19T00:16:05.878Z,73.44
2018-02-19T00:18:40.955Z,73.40
2018-02-19T00:21:16.031Z,73.43
2018-02-19T00:23:51.031Z,73.52
2018-02-19T00:26:25.859Z,73.67
2018-02-19T00:29:00.835Z,73.69
2018-02-19T00:31:35.863Z,73.80
2018-02-19T00:34:10.897Z,74.00
2018-02-19T00:36:45.955Z,74.12
2018-02-19T00:39:20.887Z,74.28
2018-02-19T00:41:56.331Z,74.43
2018-02-19T00:44:31.100Z,74.51
2018-02-19T00:47:06.169Z,74.47
2018-02-19T00:49:41.252Z,74.37
2018-02-19T00:52:16.827Z,74.77
2018-02-19T00:54:53.352Z,75.28
2018-02-19T00:57:28.211Z,75.57
2018-02-19T01:00:03.056Z,75.79
2018-02-19T01:02:38.428Z,75.78
2018-02-19T01:05:13.572Z,75.60
2018-02-19T01:07:48.896Z,75.57
2018-02-19T01:10:24.021Z,75.54
2018-02-19T01:12:59.259Z,75.62
2018-02-19T01:15:34.332Z,75.81
2018-02-19T01:18:09.491Z,75.93
2018-02-19T01:20:44.340Z,75.90
2018-02-19T01:23:19.525Z,75.96
2018-02-19T01:25:54.519Z,75.85
2018-02-19T01:28:29.346Z,75.72
2018-02-19T01:31:04.311Z,75.64
2018-02-19T01:33:39.239Z,75.57
2018-02-19T01:36:14.412Z,75.44
2018-02-19T01:38:49.516Z,75.45
2018-02-19T01:41:24.571Z,75.42
2018-02-19T01:44:00.142Z,75.40
2018-02-19T01:46:35.088Z,75.43
2018-02-19T01:49:10.086Z,75.46
2018-02-19T01:51:45.083Z,75.47
2018-02-19T01:54:20.372Z,75.60
2018-02-19T01:56:55.370Z,75.67
2018-02-19T01:59:31.087Z,75.78
2018-02-19T02:02:06.028Z,75.78
2018-02-19T02:04:40.432Z,75.93
2018-02-19T02:07:15.984Z,75.86
2018-02-19T02:09:51.103Z,75.79
2018-02-19T02:12:26.119Z,75.65
2018-02-19T02:15:01.087Z,75.61
2018-02-19T02:17:35.455Z,75.75
2018-02-19T02:20:10.427Z,75.99
2018-02-19T02:22:45.308Z,76.16
2018-02-19T02:25:20.258Z,76.24
2018-02-19T02:27:55.528Z,76.50
2018-02-19T02:30:30.192Z,76.64
2018-02-19T02:33:05.550Z,76.68
2018-02-19T02:35:40.620Z,76.70
2018-02-19T02:38:15.275Z,76.82
2018-02-19T02:40:50.115Z,77.08
2018-02-19T02:43:25.279Z,77.42
2018-02-19T02:46:00.542Z,77.52
2018-02-19T02:48:35.170Z,77.62
2018-02-19T02:51:10.607Z,77.62
2018-02-19T02:53:45.302Z,77.73
2018-02-19T02:56:20.223Z,77.77
2018-02-19T02:58:55.739Z,77.93
2018-02-19T03:01:30.785Z,77.92
2018-02-19T03:04:05.634Z,77.80
2018-02-19T03:06:40.657Z,77.56
2018-02-19T03:09:15.492Z,77.65
2018-02-19T03:11:50.563Z,77.99
2018-02-19T03:14:25.494Z,78.25
2018-02-19T03:17:00.536Z,78.66
2018-02-19T03:19:35.527Z,78.88
2018-02-19T03:22:10.800Z,78.87
2018-02-19T03:24:45.763Z,78.98
2018-02-19T03:27:20.904Z,78.81
2018-02-19T03:29:56.340Z,78.70
2018-02-19T03:32:31.174Z,78.40
2018-02-19T03:35:06.420Z,78.23
2018-02-19T03:37:41.277Z,78.26
2018-02-19T03:40:16.314Z,78.21
2018-02-19T03:42:51.395Z,77.90
2018-02-19T03:45:26.459Z,77.61
2018-02-19T03:48:01.656Z,77.78
2018-02-19T03:50:36.528Z,77.91
2018-02-19T03:53:11.635Z,78.00
2018-02-19T03:55:46.615Z,78.29
2018-02-19T03:58:21.859Z,78.70
2018-02-19T04:00:56.692Z,78.95
2018-02-19T04:03:31.543Z,79.17
2018-02-19T04:06:06.807Z,79.24
2018-02-19T04:08:41.535Z,79.17
2018-02-19T04:11:16.544Z,79.09
2018-02-19T04:13:51.422Z,79.37
2018-02-19T04:16:26.355Z,79.42
2018-02-19T04:19:01.658Z,79.39
2018-02-19T04:21:37.560Z,79.55
2018-02-19T04:24:12.600Z,79.74
2018-02-19T04:26:47.376Z,79.66
2018-02-19T04:29:22.547Z,79.55
2018-02-19T04:31:57.666Z,79.36
2018-02-19T04:34:32.451Z,79.15
2018-02-19T04:37:07.405Z,78.94
2018-02-19T04:39:42.447Z,78.53
2018-02-19T04:42:17.641Z,78.15
2018-02-19T04:44:53.611Z,77.77
2018-02-19T04:47:28.063Z,77.64
2018-02-19T04:50:03.003Z,77.18
2018-02-19T04:52:38.507Z,77.11
2018-02-19T04:55:13.523Z,77.19
2018-02-19T04:57:48.483Z,77.24
2018-02-19T05:00:23.492Z,77.44
2018-02-19T05:02:57.694Z,77.49
2018-02-19T05:05:32.466Z,77.44
2018-02-19T05:08:07.743Z,77.39
2018-02-19T05:10:42.607Z,77.34
2018-02-19T05:13:17.744Z,77.20
2018-02-19T05:15:53.923Z,77.08
2018-02-19T05:18:28.491Z,77.31
2018-02-19T05:21:03.768Z,77.61
2018-02-19T05:23:38.857Z,78.17
2018-02-19T05:26:13.975Z,78.81
2018-02-19T05:28:49.651Z,79.28
2018-02-19T05:31:24.553Z,79.48
2018-02-19T05:33:59.827Z,79.60
2018-02-19T05:36:34.653Z,79.61
2018-02-19T05:39:09.820Z,79.77
2018-02-19T05:41:44.920Z,79.72
2018-02-19T05:44:19.807Z,79.61
2018-02-19T05:46:54.855Z,79.54
2018-02-19T05:49:29.522Z,79.77
2018-02-19T05:52:04.755Z,80.00
2018-02-19T05:54:39.580Z,79.82
2018-02-19T05:57:14.821Z,79.48
2018-02-19T05:59:49.971Z,79.30
2018-02-19T06:02:24.954Z,79.23
2018-02-19T06:04:59.950Z,79.61
2018-02-19T06:07:34.799Z,79.79
2018-02-19T06:10:09.925Z,79.81
2018-02-19T06:12:44.659Z,79.71
2018-02-19T06:15:19.767Z,79.60
2018-02-19T06:17:54.732Z,79.67
2018-02-19T06:20:29.687Z,79.79
2018-02-19T06:23:04.747Z,79.98
2018-02-19T06:25:39.779Z,80.13
2018-02-19T06:28:14.730Z,79.98
2018-02-19T06:30:49.587Z,79.88
2018-02-19T06:33:24.188Z,79.68
2018-02-19T06:35:59.150Z,79.52
2018-02-19T06:38:34.036Z,79.40
2018-02-19T06:41:09.352Z,79.28
2018-02-19T06:43:43.915Z,79.12
2018-02-19T06:46:18.871Z,79.15
2018-02-19T06:48:54.223Z,79.22
2018-02-19T06:51:29.467Z,79.26
2018-02-19T06:54:04.507Z,80.85
2018-02-19T06:56:39.807Z,83.45
2018-02-19T06:59:14.796Z,83.49
2018-02-19T07:01:49.993Z,81.99
2018-02-19T07:04:24.892Z,81.25
2018-02-19T07:06:59.955Z,79.36
2018-02-19T07:09:34.844Z,80.91
2018-02-19T07:12:09.798Z,82.31
2018-02-19T07:14:45.863Z,81.67
2018-02-19T07:17:20.759Z,81.66
2018-02-19T07:19:56.124Z,81.36
2018-02-19T07:22:31.158Z,80.37
2018-02-19T07:25:06.362Z,81.51
2018-02-19T07:27:41.879Z,81.24
2018-02-19T07:30:16.855Z,81.35
2018-02-19T07:32:51.684Z,81.51
2018-02-19T07:35:26.840Z,81.38
2018-02-19T07:38:02.008Z,80.97
2018-02-19T07:40:36.968Z,80.75
2018-02-19T07:43:12.008Z,79.71
2018-02-19T07:45:46.991Z,79.83
2018-02-19T07:48:21.947Z,79.80
2018-02-19T07:50:57.128Z,79.79
2018-02-19T07:53:31.768Z,79.53
2018-02-19T07:56:07.176Z,78.42
2018-02-19T07:58:42.208Z,78.30
2018-02-19T08:01:17.084Z,77.44
2018-02-19T08:03:52.092Z,77.27
2018-02-19T08:06:26.987Z,77.84
2018-02-19T08:09:01.870Z,77.79
2018-02-19T08:11:36.817Z,78.31
2018-02-19T08:14:12.032Z,78.21
2018-02-19T08:16:47.007Z,78.69
2018-02-19T08:19:21.975Z,78.12
2018-02-19T08:21:57.052Z,76.82
2018-02-19T08:24:32.054Z,77.91
2018-02-19T08:27:07.247Z,77.51
2018-02-19T08:29:41.961Z,78.11
2018-02-19T08:32:17.084Z,76.90
2018-02-19T08:34:51.827Z,77.49
2018-02-19T08:37:27.015Z,76.51
2018-02-19T08:40:02.272Z,76.58
2018-02-19T08:42:37.619Z,76.37
2018-02-19T08:45:12.633Z,76.49
2018-02-19T08:47:47.991Z,76.78
2018-02-19T08:50:23.027Z,75.68
2018-02-19T08:52:58.297Z,75.27
2018-02-19T08:55:33.014Z,75.27
2018-02-19T08:58:08.167Z,74.40
2018-02-19T09:00:43.087Z,75.68
2018-02-19T09:03:18.124Z,76.11
2018-02-19T09:05:54.076Z,76.43
2018-02-19T09:08:29.040Z,76.70
2018-02-19T09:11:04.020Z,76.04
2018-02-19T09:13:39.059Z,75.12
2018-02-19T09:16:14.149Z,74.37
2018-02-19T09:18:48.905Z,73.54
2018-02-19T09:21:23.515Z,74.26
2018-02-19T09:23:58.251Z,72.94
2018-02-19T09:26:33.210Z,72.23
2018-02-19T09:29:08.359Z,71.65
2018-02-19T09:31:43.004Z,71.15
2018-02-19T09:34:18.103Z,72.38
2018-02-19T09:36:54.387Z,71.73
2018-02-19T09:39:29.265Z,71.31
2018-02-19T09:42:04.251Z,71.06
2018-02-19T09:44:39.260Z,70.86
2018-02-19T09:47:14.295Z,69.48
2018-02-19T09:49:49.547Z,70.23
2018-02-19T09:52:24.596Z,69.10
2018-02-19T09:54:59.680Z,69.46
2018-02-19T09:57:34.176Z,68.99
2018-02-19T10:00:08.827Z,68.38
2018-02-19T10:02:43.483Z,69.05
2018-02-19T10:05:18.250Z,67.80
2018-02-19T10:07:54.487Z,67.93
2018-02-19T10:10:29.424Z,68.53
2018-02-19T10:13:05.007Z,68.45
2018-02-19T10:15:40.101Z,65.94
2018-02-19T10:18:15.250Z,65.57
2018-02-19T10:20:50.291Z,63.99
2018-02-19T10:23:24.795Z,62.11
2018-02-19T10:26:00.032Z,62.16
2018-02-19T10:28:36.644Z,62.00
2018-02-19T10:31:12.607Z,62.58
2018-02-19T10:33:47.655Z,61.25
2018-02-19T10:36:23.100Z,62.83
2018-02-19T10:38:58.191Z,61.39
2018-02-19T10:41:33.319Z,59.91
2018-02-19T10:44:08.334Z,59.96
2018-02-19T10:46:43.376Z,59.72
2018-02-19T10:49:18.419Z,57.84
2018-02-19T10:51:54.603Z,57.68
2018-02-19T10:54:29.724Z,57.93
2018-02-19T10:57:04.555Z,57.28
2018-02-19T10:59:39.683Z,58.34
2018-02-19T11:02:14.843Z,58.88
2018-02-19T11:04:49.403Z,58.94
2018-02-19T11:07:24.404Z,58.32
2018-02-19T11:09:59.491Z,58.52
2018-02-19T11:12:34.388Z,58.94
2018-02-19T11:15:09.656Z,58.50
2018-02-19T11:17:44.499Z,57.79
2018-02-19T11:20:19.655Z,57.82
2018-02-19T11:22:54.632Z,58.17
2018-02-19T11:25:29.699Z,60.02
2018-02-19T11:28:04.828Z,59.33
2018-02-19T11:30:39.887Z,58.79
2018-02-19T11:33:14.966Z,59.18
2018-02-19T11:35:50.378Z,58.95
2018-02-19T11:38:25.228Z,59.47
2018-02-19T11:41:00.372Z,60.44
2018-02-19T11:43:35.399Z,59.88
2018-02-19T11:46:10.628Z,61.45
2018-02-19T11:48:45.479Z,59.80
2018-02-19T11:51:20.404Z,59.52
2018-02-19T11:53:55.708Z,60.48
2018-02-19T11:56:30.686Z,59.78
2018-02-19T11:59:05.931Z,59.32
2018-02-19T12:01:40.946Z,60.64
2018-02-19T12:04:16.399Z,59.82
2018-02-19T12:06:51.371Z,59.52
2018-02-19T12:09:26.348Z,58.67
2018-02-19T12:12:01.478Z,59.23
2018-02-19T12:14:36.501Z,58.35
2018-02-19T12:17:11.648Z,57.64
2018-02-19T12:19:46.548Z,57.41
2018-02-19T12:22:21.578Z,57.51
2018-02-19T12:24:56.771Z,57.23
2018-02-19T12:27:31.627Z,57.01
2018-02-19T12:30:06.871Z,57.21
2018-02-19T12:32:41.719Z,55.74
2018-02-19T12:35:16.965Z,56.37
2018-02-19T12:37:52.047Z,56.56
2018-02-19T12:40:26.664Z,54.68
2018-02-19T12:43:01.811Z,54.12
2018-02-19T12:45:36.707Z,53.67
2018-02-19T12:48:11.987Z,53.16
2018-02-19T12:50:46.711Z,53.16
2018-02-19T12:53:21.711Z,53.98
2018-02-19T12:55:56.940Z,52.96
2018-02-19T12:58:31.991Z,51.98
2018-02-19T13:01:07.647Z,52.31
2018-02-19T13:03:42.075Z,51.65
2018-02-19T13:06:17.605Z,50.69
2018-02-19T13:08:52.654Z,49.81
2018-02-19T13:11:27.748Z,48.97
2018-02-19T13:14:02.992Z,48.95
2018-02-19T13:16:38.018Z,48.67
2018-02-19T13:19:13.052Z,48.59
2018-02-19T13:21:47.975Z,49.02
2018-02-19T13:24:22.962Z,49.35
2018-02-19T13:26:58.243Z,49.85
2018-02-19T13:29:33.108Z,49.87
2018-02-19T13:32:07.899Z,49.90
2018-02-19T13:34:43.632Z,48.24
2018-02-19T13:37:18.568Z,48.12
2018-02-19T13:39:54.179Z,47.38
2018-02-19T13:42:28.983Z,47.44
2018-02-19T13:45:03.859Z,47.02
2018-02-19T13:47:39.055Z,47.96
2018-02-19T13:50:13.907Z,47.30
2018-02-19T13:52:48.940Z,47.77
2018-02-19T13:55:23.987Z,48.98
2018-02-19T13:57:59.019Z,49.36
2018-02-19T14:00:34.100Z,50.41
2018-02-19T14:03:09.004Z,49.76
2018-02-19T14:05:43.936Z,49.93
2018-02-19T14:08:19.585Z,48.80
2018-02-19T14:10:55.067Z,48.59
2018-02-19T14:13:30.155Z,47.60
2018-02-19T14:16:05.135Z,47.77
2018-02-19T14:18:39.799Z,47.45
2018-02-19T14:21:15.254Z,47.88
2018-02-19T14:23:49.975Z,48.47
2018-02-19T14:26:24.719Z,48.78
2018-02-19T14:28:59.807Z,48.81
2018-02-19T14:31:34.851Z,48.88
2018-02-19T14:34:10.067Z,47.93
2018-02-19T14:36:45.167Z,47.71
2018-02-19T14:39:20.214Z,47.50
2018-02-19T14:41:55.320Z,48.00
2018-02-19T14:44:29.967Z,47.81
2018-02-19T14:47:04.547Z,47.58
2018-02-19T14:49:39.976Z,48.27
2018-02-19T14:52:15.220Z,47.90
2018-02-19T14:54:50.540Z,48.71
2018-02-19T14:57:25.411Z,49.45
2018-02-19T15:00:02.256Z,49.09
2018-02-19T15:02:36.925Z,49.45
2018-02-19T15:05:12.200Z,50.61
2018-02-19T15:07:47.563Z,51.28
2018-02-19T15:10:22.243Z,52.09
2018-02-19T15:12:57.220Z,53.25
2018-02-19T15:15:32.094Z,52.96
2018-02-19T15:18:07.044Z,52.45
2018-02-19T15:20:42.087Z,51.10
2018-02-19T15:23:17.248Z,51.05
2018-02-19T15:25:52.479Z,51.03
2018-02-19T15:28:27.328Z,51.56
2018-02-19T15:31:02.719Z,52.79
2018-02-19T15:33:37.488Z,52.80
2018-02-19T15:36:12.984Z,53.28
2018-02-19T15:38:48.119Z,53.63
2018-02-19T15:41:22.995Z,54.05
2018-02-19T15:43:58.312Z,54.42
2018-02-19T15:46:33.359Z,54.06
2018-02-19T15:49:08.335Z,53.16
2018-02-19T15:51:43.287Z,53.23
2018-02-19T15:54:18.039Z,53.61
2018-02-19T15:56:53.195Z,54.13
2018-02-19T15:59:28.199Z,55.37
2018-02-19T16:02:03.003Z,55.73
2018-02-19T16:04:38.267Z,56.09
2018-02-19T16:07:13.546Z,56.81
2018-02-19T16:09:49.081Z,57.42
2018-02-19T16:12:24.088Z,57.94
2018-02-19T16:14:59.396Z,58.43
2018-02-19T16:17:34.171Z,59.22
2018-02-19T16:20:09.403Z,59.76
2018-02-19T16:22:43.740Z,60.54
2018-02-19T16:25:18.744Z,61.11
2018-02-19T16:27:55.250Z,62.04
2018-02-19T16:30:30.095Z,62.69
2018-02-19T16:33:05.279Z,62.73
2018-02-19T16:35:40.233Z,63.01
2018-02-19T16:38:15.160Z,63.92
2018-02-19T16:40:50.262Z,63.83
2018-02-19T16:43:25.539Z,63.69
2018-02-19T16:46:00.180Z,63.75
2018-02-19T16:48:35.144Z,63.95
2018-02-19T16:51:10.426Z,64.03
2018-02-19T16:53:45.192Z,64.45
2018-02-19T16:56:20.199Z,64.84
2018-02-19T16:58:55.595Z,65.57
2018-02-19T17:01:30.284Z,65.24
2018-02-19T17:04:05.155Z,65.29
2018-02-19T17:06:39.884Z,65.45
2018-02-19T17:09:14.019Z,65.72
2018-02-19T17:11:49.221Z,65.84
2018-02-19T17:14:24.257Z,66.05
2018-02-19T17:16:59.519Z,66.28
2018-02-19T17:19:34.611Z,66.56
2018-02-19T17:22:09.623Z,66.89
2018-02-19T17:24:44.787Z,66.98
2018-02-19T17:27:20.280Z,66.96
2018-02-19T17:29:55.681Z,67.16
2018-02-19T17:32:30.387Z,67.45
2018-02-19T17:35:04.935Z,67.65
2018-02-19T17:37:40.264Z,68.10
2018-02-19T17:40:15.267Z,68.07
2018-02-19T17:42:50.440Z,67.97
2018-02-19T17:45:25.344Z,67.95
2018-02-19T17:48:00.363Z,68.01
2018-02-19T17:50:35.357Z,68.09
2018-02-19T17:53:10.477Z,68.15
2018-02-19T17:55:45.420Z,68.09
2018-02-19T17:58:20.428Z,68.04
2018-02-19T18:00:55.719Z,67.88
2018-02-19T18:03:31.239Z,67.69
2018-02-19T18:06:05.827Z,67.68
2018-02-19T18:08:41.268Z,67.61
2018-02-19T18:11:16.274Z,67.54
2018-02-19T18:13:51.299Z,67.98
2018-02-19T18:16:25.839Z,68.21
2018-02-19T18:19:01.120Z,68.21
2018-02-19T18:21:35.892Z,68.30
2018-02-19T18:24:10.828Z,68.60
2018-02-19T18:26:45.789Z,68.80
2018-02-19T18:29:21.404Z,69.11
2018-02-19T18:31:56.504Z,69.42
2018-02-19T18:34:31.583Z,69.63
2018-02-19T18:37:06.723Z,69.81
2018-02-19T18:39:41.711Z,70.21
2018-02-19T18:42:16.232Z,70.51
2018-02-19T18:44:51.676Z,70.79
2018-02-19T18:47:26.720Z,70.99
2018-02-19T18:50:01.859Z,71.00
2018-02-19T18:52:36.765Z,70.86
2018-02-19T18:55:12.044Z,70.83
2018-02-19T18:57:46.875Z,70.82
2018-02-19T19:00:21.896Z,71.02
2018-02-19T19:05:28.140Z,72.12
2018-02-19T19:08:14.073Z,72.66
2018-02-19T19:10:52.559Z,73.19
2018-02-19T19:13:26.867Z,73.51
2018-02-19T19:16:01.989Z,73.77
2018-02-19T19:18:37.564Z,73.72
2018-02-19T19:21:12.847Z,73.57
2018-02-19T19:23:47.986Z,73.50
2018-02-19T19:26:23.208Z,73.39
2018-02-19T19:28:58.747Z,73.34
2018-02-19T19:31:34.025Z,73.33
2018-02-19T19:34:08.862Z,73.27
2018-02-19T19:36:43.708Z,73.27
2018-02-19T19:39:18.374Z,73.25
2018-02-19T19:41:52.748Z,73.32
2018-02-19T19:44:27.724Z,73.53
2018-02-19T19:47:03.184Z,73.66
2018-02-19T19:49:37.935Z,73.72
2018-02-19T19:52:13.204Z,73.94
2018-02-19T19:54:47.831Z,74.06
2018-02-19T19:57:23.013Z,73.93
2018-02-19T19:59:58.123Z,74.03
2018-02-19T20:02:32.980Z,74.15
2018-02-19T20:05:08.319Z,74.35
2018-02-19T20:07:43.721Z,74.49
2018-02-19T20:10:18.287Z,74.90
2018-02-19T20:12:53.390Z,75.25
2018-02-19T20:15:28.864Z,75.32
2018-02-19T20:18:03.264Z,75.21
2018-02-19T20:20:38.107Z,75.35
2018-02-19T20:23:13.344Z,75.36
2018-02-19T20:25:48.494Z,75.48
2018-02-19T20:28:23.128Z,75.76
2018-02-19T20:30:58.295Z,76.04
2018-02-19T20:33:33.464Z,76.62
2018-02-19T20:36:09.004Z,76.85
2018-02-19T20:38:43.843Z,76.91
2018-02-19T20:41:19.003Z,76.97
2018-02-19T20:43:54.374Z,77.04
2018-02-19T20:46:29.132Z,77.08
2018-02-19T20:49:03.903Z,77.21
2018-02-19T20:51:39.041Z,78.02
2018-02-19T20:54:13.934Z,79.23
2018-02-19T20:56:48.994Z,79.81
2018-02-19T20:59:24.084Z,80.05
2018-02-19T21:01:59.255Z,79.96
2018-02-19T21:04:34.091Z,79.83
2018-02-19T21:07:09.536Z,79.79
2018-02-19T21:09:44.272Z,79.64
2018-02-19T21:12:19.448Z,79.44
2018-02-19T21:14:54.633Z,79.33
2018-02-19T21:17:29.653Z,79.29
2018-02-19T21:20:04.488Z,79.24
2018-02-19T21:22:39.860Z,79.10
2018-02-19T21:25:15.036Z,79.19
2018-02-19T21:27:50.200Z,79.08
2018-02-19T21:30:24.638Z,79.08
2018-02-19T21:32:59.599Z,79.16
2018-02-19T21:35:35.079Z,79.35
2018-02-19T21:38:10.330Z,79.40
2018-02-19T21:40:45.211Z,79.35
2018-02-19T21:43:20.384Z,79.30
2018-02-19T21:45:56.417Z,79.33
2018-02-19T21:48:31.956Z,79.36
2018-02-19T21:51:07.555Z,79.44
2018-02-19T21:53:43.126Z,79.56
2018-02-19T21:56:18.203Z,79.70
2018-02-19T21:58:53.277Z,79.86
2018-02-19T22:01:28.367Z,80.50
2018-02-19T22:04:03.532Z,80.72
2018-02-19T22:06:47.947Z,81.15
2018-02-19T22:09:22.959Z,81.31
2018-02-19T22:11:58.406Z,81.46
2018-02-19T22:14:33.433Z,81.59
2018-02-19T22:17:08.672Z,81.56
2018-02-19T22:19:43.722Z,81.45
2018-02-19T22:22:18.495Z,81.55
2018-02-19T22:24:53.456Z,81.84
2018-02-19T22:27:28.203Z,82.01
2018-02-19T22:30:03.526Z,82.27
2018-02-19T22:32:38.432Z,82.24
2018-02-19T22:35:12.432Z,82.22
2018-02-19T22:37:47.695Z,82.17
2018-02-19T22:40:22.415Z,82.11
2018-02-19T22:43:06.224Z,81.94
2018-02-19T22:45:41.232Z,81.79
2018-02-19T22:48:16.844Z,81.56
2018-02-19T22:50:51.575Z,81.51
2018-02-19T22:53:26.750Z,81.57
2018-02-19T22:56:02.188Z,81.58
2018-02-19T22:58:37.393Z,81.50
2018-02-19T23:01:12.632Z,81.46
2018-02-19T23:03:47.567Z,81.55
2018-02-19T23:06:23.119Z,81.59
2018-02-19T23:08:58.260Z,81.61
2018-02-19T23:11:33.488Z,81.56
2018-02-19T23:14:08.383Z,81.40
2018-02-19T23:16:43.123Z,81.24
2018-02-19T23:19:18.324Z,81.17
2018-02-19T23:21:53.434Z,81.17
2018-02-19T23:24:28.387Z,81.30
2018-02-19T23:27:02.767Z,81.69
2018-02-19T23:29:37.532Z,82.16
2018-02-19T23:32:12.796Z,82.66
2018-02-19T23:34:47.423Z,82.92
2018-02-19T23:37:22.382Z,83.02
2018-02-19T23:39:56.799Z,83.15
2018-02-19T23:42:31.362Z,83.51
2018-02-19T23:45:06.601Z,83.75
2018-02-19T23:47:41.357Z,83.83
2018-02-19T23:50:16.349Z,83.93
2018-02-19T23:52:51.806Z,84.11
2018-02-19T23:55:27.417Z,84.46
2018-02-19T23:58:02.489Z,84.70
